默认 日期 大小 文件数 浏览量 最新下载 xml
coming磁力链接相关资源由用户搜索指令自动获取,结果来源于网络,本站不存储任何资料,亦不承担任何责任,请于24小时内删除,搜索到8125个磁力,显示前4000条数据,用时4ms。
    ... .nortth.par.1.winter.is.coming.hdtv.x264-w4f.mkv": 426881341 ... .nortth.par.1.winter.is.coming.hdtv.x264-w4f.nfo": 5828 ...
创建时间: 2019-01-18 11:07:26 大小:408.45 MB 文件数量:7 热度:4 最近下载:2022-11-15 19:36:00
    ... txt": 382, "the.sheriffs.are.coming.s03e09.webrip.x264-iom.mp4 ... ": 269204938, "the.sheriffs.are.coming.s03e09.webrip.x264-iom.nfo ... ": 416, "the.sheriffs.are.coming.s03e09.webrip.x264-iom.srr ... ": 39893, "the.sheriffs.are.coming.s03e09.webrip.x264-iom.sample ...
创建时间: 2019-01-18 11:51:43 大小:263.38 MB 文件数量:6 热度:8 最近下载:2022-11-12 10:29:04
    {"Torrent Downloaded From ProstyleX.com.nfo": 38, "NubileFilms - Cherry Kiss - Keep Me Coming.mp4": 394961628}
创建时间: 2019-01-18 15:58:28 大小:376.66 MB 文件数量:2 热度:5 最近下载:2022-11-12 10:17:24
    {"LettingGo_s01_AnyaOlsen_MickBlue_720p.mp4": 1231169934, "Bonding_s01_BrandiLove_ElenaKoshka_720p.mp4": 2158353971, "ASliceofHeaven_s01_LilyAdams_UmaJolie_720p.mp4": 1441103642, "MathematicsofLove_s01_MayaBijou_TylerNixon_720p.mp4": 1536518899}
创建时间: 2019-01-18 16:52:47 大小:5.93 GB 文件数量:4 热度:6 最近下载:2024-05-01 19:20:01
    ... They Said A Storm Was Coming.m4a": 7188821}
创建时间: 2019-01-18 17:01:53 大小:79.96 MB 文件数量:11 热度:7 最近下载:2024-12-14 11:11:01
    {"Torrent downloaded from Demonoid.com.txt": 47, "Movie 10 Dragon Ball Z Broly Second Coming.mkv": 2347102565}
创建时间: 2019-01-18 17:13:37 大小:2.19 GB 文件数量:2 热度:6 最近下载:2022-11-12 09:51:43
    {"cover.jpg": 186993, "02 Unscathed.flac": 20329794, "04 Holy Road.flac": 19897728, "11 Let You Go.flac": 15306075, "07 Fell for You.flac": 22939648, "08 Animal Stuff.flac": 26110292, "10 I Don't Care.flac": 19609294, "05 I Need to Know.flac": 23717934, " ...
创建时间: 2019-01-18 19:25:54 大小:282.48 MB 文件数量:14 热度:6 最近下载:2022-11-15 20:22:01
    ... .mp3": 13519164, "04. Time Is Coming.mp3": 12704146, "02. I'm ...
创建时间: 2019-01-18 19:37:16 大小:167.78 MB 文件数量:14 热度:4 最近下载:2022-11-12 09:44:18
    ... Blue.mp3": 16066735, "05. The Coming of War.mp3": 11129596, "08 ...
创建时间: 2019-01-18 23:19:43 大小:113.96 MB 文件数量:11 热度:6 最近下载:2025-02-17 23:55:03
    {"unarc.exe": 214016, "SiMPLEX.bin": 174453649, "SiMPLEX.exe": 143872, "SiMPLEX.ini": 217, "bassmod.dll": 34308, "simplex.nfo": 4883, "README!!!.txt": 232, "GoodOldDownloads.com.url": 262}
创建时间: 2019-01-18 23:26:30 大小:166.75 MB 文件数量:8 热度:6 最近下载:2022-11-15 20:13:24
    ... 怖将映.Fear.Is.Coming.2016.HD720P.X264.AAC.Mandarin ...
创建时间: 2019-01-19 01:06:05 大小:1.85 GB 文件数量:7 热度:11 最近下载:2025-09-12 14:36:24
    ... , "05 - The Plague Of A Coming Age.flac": 47504808, "07 - Boiling ... Falls - The Plague Of A Coming Age.log": 11038, "October Falls ... - The Plague Of A Coming Age.m3u": 793}
创建时间: 2019-01-19 01:21:20 大小:338.1 MB 文件数量:13 热度:4 最近下载:2022-11-15 19:36:35
    {"01.jpg": 410069, "02.png": 596311, "03.png": 645606, "04.png": 652530, "05.png": 706551, "06.png": 796004, "07.png": 529953, "08.png": 819474, "09.png": 791765, "10.png": 555647, "11.png": 786943, "12.png": 627665, "13.png": 678622, "14.png": 706839, "15 ...
创建时间: 2019-01-19 02:36:01 大小:22.6 MB 文件数量:33 热度:9 最近下载:2025-09-18 01:21:02
    ... Van Horny - Busty Slut Is Coming To Try Black Cocks IV241 ...
创建时间: 2019-01-19 02:51:48 大小:1.28 GB 文件数量:31 热度:12 最近下载:2025-08-07 11:22:02
    ... .flac": 33424075, "06 - Everything's Coming Up Love.flac": 32350998, "David ... Ruffin - Everything's Coming Up Love.cue": 1457, "David ... Ruffin - Everything's Coming Up Love.log": 10286}
创建时间: 2019-01-19 03:51:52 大小:329.89 MB 文件数量:28 热度:6 最近下载:2024-08-25 16:27:02
    {"Downloaded From PublicHD.SE.txt": 92, "Close.Encounters.S01E03.Second.Coming.and.Space.Rock.720p.HDTV.x264-DHD.mkv": 718971041}
创建时间: 2019-01-19 04:29:06 大小:685.66 MB 文件数量:2 热度:7 最近下载:2024-03-25 23:32:01
    {"artwork": {"Coming Home - sleeve.jpg": 77374}, "05. ... . Better Man.flac": 51176836, "01. Coming Home.flac": 73915175, "06. Lisa ... '.flac": 94752994, "00. Leon Bridges - Coming Home.m3u8": 219}
创建时间: 2019-01-19 04:57:59 大小:723.82 MB 文件数量:12 热度:4 最近下载:2022-11-12 12:25:46
    {"poster.jpg": 43473, "screens.jpg": 627197, "RARBG.com.txt": 33, "gw.16.11.28.riley.reid.and.cadence.lux.lesbian.coming.out.stories.part.three.mp4": 1384969528}
创建时间: 2019-01-19 05:15:54 大小:1.29 GB 文件数量:4 热度:16 最近下载:2025-09-17 10:32:01
    {"来了天使们都市篇.Are.You.Coming!-City.of.Angels.2017.HDRip.1080p.x264.mkv": 2153112471}
创建时间: 2019-01-19 05:23:57 大小:2.01 GB 文件数量:1 热度:7 最近下载:2022-11-12 10:50:58
    ... , "Dragonball Z Broly's Second Coming (1994) WEB-DL 480p [English ... , "Dragonball Z Broly's Second Coming (1994) WEB-DL 480p [English ...
创建时间: 2019-01-19 05:59:48 大小:401.41 MB 文件数量:8 热度:5 最近下载:2022-11-12 10:32:45